Track Шведов Ярослав

Time Latitude Longitude Accuracy (66% radius in meters) Altitude (meters) Speed (km/hour) Bearing (degrees) Battery (%) GPS flag
10:33:20 55.737912 37.299103 8 169.53801680958 0.31272187829018 319.06173706055 73 1 delete
10:33:11 55.737922 37.299112 6 168.90518739596 0.43090784549713 311.63555908203 73 1 delete
10:32:59 55.737923 37.299115 8 167.34181022638 0.74037474393845 206.30696105957 73 1 delete
10:32:47 55.737929 37.299115 6 166.59647203606 0.042504444718361 16.687473297119 73 1 delete
10:32:35 55.737928 37.299110 8 166.53450870527 0.21289822459221 235.10110473633 73 1 delete
10:32:23 55.737941 37.299122 4 166.45251721926 0.053991165012121 20.107057571411 73 1 delete
10:32:11 55.737955 37.299169 6 166.47506524789 0.01552243810147 56.504550933838 73 1 delete
10:32:02 55.737939 37.299152 8 167.10718054333 0.0083318976685405 56.504550933838 73 1 delete
10:31:59 55.737942 37.299134 6 167.15414638269 0.15621136128902 56.504550933838 73 1 delete
10:31:47 55.737955 37.299044 6 167.82747351975 0.16729991137981 42.814945220947 73 1 delete
10:31:35 55.737977 37.299094 6 168.17574451022 0.19115814566612 42.814945220947 73 1 delete
10:31:23 55.737952 37.299091 6 167.75037344092 0.047201085835695 298.59219360352 73 1 delete
10:31:11 55.737930 37.299125 6 168.15255435253 0.056927531957626 220.71905517578 73 1 delete
10:30:56 55.737950 37.299056 8 169.50718235122 0.1540000885725 233.91081237793 73 1 delete
10:30:53 55.737946 37.299073 4 169.61989013355 0.037136301398277 233.91081237793 73 1 delete
10:30:44 55.737943 37.299092 6 170.01992288832 0.039518136531115 350.58242797852 73 1 delete
10:30:35 55.737932 37.299093 8 169.87950295733 0.18467135727406 324.14627075195 73 1 delete
10:30:23 55.737915 37.299120 8 170.51644477479 0.20328548550606 58.809265136719 73 1 delete
10:30:11 55.737941 37.299115 8 170.86452846293 0.08992675691843 64.087379455566 73 1 delete
10:29:59 55.737958 37.299127 6 170.7112589155 0.031314730644226 64.087379455566 73 1 delete
10:29:50 55.737970 37.299131 12 171.01986671654 0.17378631234169 226.87753295898 73 1 delete
10:29:38 55.737954 37.299164 6 171.00350154931 0.02899775467813 183.78646850586 73 1 delete
10:29:29 55.737944 37.299180 6 171.90748432146 0.11462292820215 82.488037109375 73 1 delete
10:29:17 55.737940 37.299155 6 172.22577270072 0.40424391627312 82.488037109375 73 1 delete
10:29:08 55.737924 37.299061 8 172.3271225346 1.2835973501205 47.692176818848 73 1 delete
10:29:02 55.737877 37.299008 8 172.05021213753 1.4844241142273 359.99691772461 73 1 delete
10:28:56 55.737813 37.298923 8 171.72401336144 1.3682137727737 65.945785522461 73 1 delete
10:28:53 55.737794 37.298849 8 171.56297946537 1.2755562067032 37.254528045654 73 1 delete
10:28:47 55.737740 37.298774 12 170.89183803057 0.65156066417694 47.299987792969 73 1 delete
10:28:44 55.737724 37.298751 12 170.60787538834 0.52537620067596 19.926942825317 73 1 delete
10:28:38 55.737697 37.298707 12 170.47929706763 1.4288761615753 55.649936676025 73 1 delete
10:28:32 55.737651 37.298682 8 170.30286886357 1.5547617673874 327.90277099609 73 1 delete
10:28:29 55.737606 37.298698 8 170.29863181951 1.4308511018753 47.563446044922 73 1 delete
10:28:23 55.737540 37.298633 6 169.98837343757 1.2102155685425 356.37640380859 73 1 delete
10:28:20 55.737489 37.298664 6 170.07520343703 1.1324709653854 332.63140869141 73 1 delete
10:28:17 55.737438 37.298695 8 170.38178286133 1.2891736030579 337.05804443359 73 1 delete
10:28:11 55.737385 37.298766 6 170.74557123018 0.37434509396553 121.99854278564 73 1 delete
10:28:08 55.737391 37.298762 12 171.06006417163 0.4693940281868 12.959167480469 73 1 delete
10:28:02 55.737349 37.298792 8 171.47745500588 2.5580263137817 341.43902587891 73 1 delete
10:27:59 55.737263 37.298846 6 171.45368334882 2.7836010456085 5.5070180892944 73 1 delete
10:27:56 55.737216 37.298814 8 171.32447111778 3.266907453537 67.821662902832 73 1 delete
10:27:53 55.737178 37.298699 6 171.08156413323 3.8181736469269 68.225700378418 73 1 delete
10:27:50 55.737172 37.298566 6 170.65442914849 4.3187279701233 134.34141540527 73 1 delete
10:27:47 55.737265 37.298463 6 170.29417585396 4.6523423194885 149.24575805664 73 1 delete
10:27:44 55.737371 37.298363 4 169.97995422491 4.9352250099182 148.71733093262 73 1 delete
10:27:41 55.737474 37.298277 6 169.34393515027 5.2285237312317 153.14587402344 73 1 delete
10:27:38 55.737580 37.298196 6 168.03944062241 5.5451631546021 155.56462097168 73 1 delete
10:27:35 55.737693 37.298108 8 166.47825266774 5.8094077110291 160.52604675293 73 1 delete
10:27:32 55.737833 37.298020 6 166.45430468485 5.8099050521851 164.06968688965 73 1 delete
10:27:29 55.737994 37.297929 6 167.62444682329 5.571786403656 162.63429260254 73 1 delete